Flight Track Log - Related Links

Times and Time Zones

All times are in EDT time to prevent confusion due to time zone crossing. See the LXJ342 flight status page for this flight to view local times or setup timezone preferences in your user account.

Time Position Orientation Groundspeed Altitude Reporting Facility
EDT Latitude Longitude Course Direction KTS MPH feet Rate Location/Type
Thu 07:52:56 PM 42.4167 -71.2833 194° South 207 238 4,700  Level KA90
Thu 07:55:15 PM 42.3817 -71.4817 257° West 235 270 13,700 3,377 Climbing Boston Center
Thu 07:56:15 PM 42.3619 -71.5972 257° West 284 327 15,900 1,150 Climbing Boston Center
Thu 07:57:00 PM 42.3272 -71.8932 253° West  Level FlightAware Approximate
Thu 07:57:15 PM 42.3378 -71.7294 256° West 340 391 16,000  Level Boston Center
Thu 07:58:15 PM 42.3175 -71.8506 257° West 371 427 16,000  Level Boston Center
Thu 07:59:15 PM 42.2892 -72.0022 256° West 383 441 16,000  Level Boston Center
Thu 08:00:15 PM 42.2667 -72.1372 257° West 383 441 16,000  Level Boston Center
Thu 08:01:15 PM 42.2419 -72.2747 256° West 374 430 16,000  Level Boston Center
Thu 08:02:15 PM 42.2169 -72.4119 256° West 379 436 16,000  Level Boston Center
Thu 08:03:15 PM 42.1919 -72.5522 257° West 379 436 16,000  Level Boston Center
Thu 08:04:15 PM 42.1667 -72.6867 256° West 379 436 16,000  Level Boston Center
Thu 08:05:15 PM 42.1581 -72.8097 265° West 369 425 16,000  Level Boston Center
Thu 08:06:15 PM 42.1469 -72.9608 264° West 369 425 16,000  Level Boston Center
Thu 08:07:15 PM 42.1381 -73.0811 264° West 369 425 16,000  Level Boston Center
Thu 08:08:15 PM 42.1289 -73.2350 265° West 369 425 16,000  Level Boston Center
Thu 08:09:15 PM 42.1172 -73.3750 264° West 369 425 16,000  Level Boston Center
Thu 08:10:15 PM 42.1078 -73.5119 265° West 369 425 16,000  Level Boston Center
Thu 08:11:27 PM 42.0669 -73.6425 247° West 369 425 16,000  Level Boston Center
Thu 08:12:27 PM 42.0214 -73.7786 246° West 369 425 16,000 -300 Level Boston Center
Thu 08:13:27 PM 41.9656 -73.9144 241° Southwest 380 437 15,400 -1,000 Descending Boston Center
Thu 08:14:27 PM 41.9142 -74.0136 235° Southwest 380 437 14,000 -1,450 Descending Boston Center
Thu 08:15:27 PM 41.8503 -74.1178 231° Southwest 375 432 12,500 -1,550 Descending Boston Center
Thu 08:16:27 PM 41.7675 -74.2103 220° Southwest 359 413 10,900 -1,250 Descending Boston Center
Thu 08:17:27 PM 41.6911 -74.2917 219° Southwest 359 413 10,000 -650 Descending Boston Center
Thu 08:18:27 PM 41.6169 -74.3700 218° Southwest 348 400 9,600 -900 Descending Boston Center
Thu 08:19:27 PM 41.5553 -74.4375 219° Southwest 309 356 8,200 -1,200 Descending Boston Center
Thu 08:20:27 PM 41.4897 -74.4936 213° Southwest 293 337 7,200 -424 Descending Boston Center
Thu 08:22:17 PM 41.3667 -74.5833 209° Southwest 284 327 7,000 -353 Descending New York TRACON
Thu 08:23:17 PM 41.2833 -74.6167 197° South 291 335 6,200 -1,333 Descending New York TRACON
Thu 08:24:23 PM 41.2167 -74.5667 151° Southeast 289 333 4,200 -1,100 Descending New York TRACON
Thu 08:25:17 PM 41.1667 -74.4833 129° Southeast 279 321 4,000 -632 Descending New York TRACON
Thu 08:26:17 PM 41.1333 -74.4000 118° Southeast 277 319 3,000 -496 Descending New York TRACON
Thu 08:27:18 PM 41.0833 -74.3333 135° Southeast 270 311 3,000  Level New York TRACON
Thu 08:28:23 PM 41.0333 -74.2333 124° Southeast 276 318 3,000 -450 Level New York TRACON
Thu 08:29:18 PM 41.0000 -74.1667 124° Southeast 256 295 2,100 -579 Descending New York TRACON
Thu 08:30:17 PM 40.9500 -74.1000 135° Southeast 221 254 1,900 -474 Descending New York TRACON
Thu 08:31:12 PM 40.9333 -74.0500 114° Southeast 192 221 1,200 -645 Descending New York TRACON
Thu 08:32:18 PM 40.8833 -74.0500 180° South 132 152 600 -545 Descending New York TRACON

Login

Don't have an account? Register now (free) for customized features, flight alerts, and more!